createdAt,value
2019-05-20T00:01:35.347Z,67.40
2019-05-20T00:04:06.208Z,67.20
2019-05-20T00:06:37.005Z,67.30
2019-05-20T00:09:08.301Z,67.30
2019-05-20T00:11:39.246Z,67.40
2019-05-20T00:14:10.151Z,67.20
2019-05-20T00:16:41.151Z,67.20
2019-05-20T00:19:11.947Z,67.40
2019-05-20T00:21:42.642Z,67.00
2019-05-20T00:24:13.668Z,66.70
2019-05-20T00:26:44.538Z,66.70
2019-05-20T00:29:15.530Z,66.30
2019-05-20T00:31:46.428Z,66.10
2019-05-20T00:34:17.136Z,65.60
2019-05-20T00:36:47.781Z,65.90
2019-05-20T00:39:20.132Z,65.20
2019-05-20T00:41:50.821Z,66.10
2019-05-20T00:44:21.798Z,65.60
2019-05-20T00:46:52.775Z,65.30
2019-05-20T00:49:23.462Z,63.50
2019-05-20T00:51:54.230Z,64.20
2019-05-20T00:54:25.217Z,64.40
2019-05-20T00:56:55.837Z,64.20
2019-05-20T00:59:26.574Z,63.40
2019-05-20T01:01:57.532Z,63.00
2019-05-20T01:04:28.249Z,62.10
2019-05-20T01:06:58.939Z,62.10
2019-05-20T01:09:29.661Z,62.60
2019-05-20T01:12:00.343Z,61.80
2019-05-20T01:14:31.036Z,61.40
2019-05-20T01:17:02.061Z,61.60
2019-05-20T01:19:32.821Z,60.40
2019-05-20T01:22:03.504Z,61.20
2019-05-20T01:24:34.219Z,60.20
2019-05-20T01:27:04.952Z,60.70
2019-05-20T01:29:35.684Z,60.70
2019-05-20T01:32:06.376Z,59.80
2019-05-20T01:34:37.076Z,60.30
2019-05-20T01:37:07.844Z,60.20
2019-05-20T01:39:38.527Z,60.00
2019-05-20T01:42:09.406Z,60.10
2019-05-20T01:44:40.299Z,59.40
2019-05-20T01:47:11.275Z,58.60
2019-05-20T01:49:42.153Z,59.10
2019-05-20T01:52:12.848Z,58.90
2019-05-20T01:54:44.063Z,58.80
2019-05-20T01:57:14.738Z,58.50
2019-05-20T01:59:45.443Z,57.80
2019-05-20T02:02:16.136Z,58.50
2019-05-20T02:04:46.836Z,57.70
2019-05-20T02:07:18.266Z,57.30
2019-05-20T02:09:49.040Z,57.10
2019-05-20T02:12:19.746Z,57.40
2019-05-20T02:14:51.779Z,56.90
2019-05-20T02:17:22.453Z,56.40
2019-05-20T02:19:53.179Z,57.00
2019-05-20T02:22:23.929Z,55.20
2019-05-20T02:24:54.673Z,55.90
2019-05-20T02:27:25.629Z,55.60
2019-05-20T02:29:56.539Z,54.30
2019-05-20T02:32:27.202Z,55.30
2019-05-20T02:34:58.109Z,54.60
2019-05-20T02:37:28.807Z,53.90
2019-05-20T02:39:59.505Z,54.80
2019-05-20T02:42:30.200Z,54.00
2019-05-20T02:45:00.905Z,52.60
2019-05-20T02:47:31.652Z,52.50
2019-05-20T02:50:02.369Z,52.80
2019-05-20T02:52:33.011Z,52.60
2019-05-20T02:55:03.725Z,52.60
2019-05-20T02:57:34.394Z,52.80
2019-05-20T03:00:06.922Z,52.70
2019-05-20T03:02:37.593Z,53.10
2019-05-20T03:05:09.637Z,52.70
2019-05-20T03:07:40.361Z,52.50
2019-05-20T03:10:11.071Z,50.90
2019-05-20T03:12:41.745Z,51.30
2019-05-20T03:15:12.431Z,50.80
2019-05-20T03:17:43.056Z,51.00
2019-05-20T03:20:13.917Z,51.00
2019-05-20T03:22:47.076Z,50.40
2019-05-20T03:25:17.756Z,50.20
2019-05-20T03:27:48.542Z,50.70
2019-05-20T03:30:19.596Z,51.50
2019-05-20T03:32:50.338Z,49.80
2019-05-20T03:35:21.057Z,49.30
2019-05-20T03:37:52.340Z,49.90
2019-05-20T03:40:23.330Z,49.30
2019-05-20T03:42:54.319Z,48.40
2019-05-20T03:45:25.007Z,49.00
2019-05-20T03:47:55.700Z,48.90
2019-05-20T03:50:26.477Z,49.10
2019-05-20T03:52:57.272Z,49.00
2019-05-20T03:55:28.043Z,47.80
2019-05-20T03:57:58.776Z,48.00
2019-05-20T04:00:32.159Z,47.60
2019-05-20T04:03:02.898Z,48.40
2019-05-20T04:05:33.741Z,49.00
2019-05-20T04:08:04.641Z,48.20
2019-05-20T04:10:36.611Z,48.60
2019-05-20T04:13:07.404Z,47.00
2019-05-20T04:15:38.968Z,48.30
2019-05-20T04:18:10.234Z,48.70
2019-05-20T04:20:41.102Z,48.10
2019-05-20T04:23:12.095Z,47.80
2019-05-20T04:25:42.877Z,47.90
2019-05-20T04:28:13.896Z,47.50
2019-05-20T04:30:47.466Z,47.20
2019-05-20T04:33:24.413Z,48.90
2019-05-20T04:35:55.568Z,47.20
2019-05-20T04:38:26.413Z,46.90
2019-05-20T04:40:57.191Z,46.00
2019-05-20T04:43:28.017Z,47.00
2019-05-20T04:45:59.029Z,46.90
2019-05-20T04:48:29.876Z,46.40
2019-05-20T04:51:00.788Z,46.60
2019-05-20T04:53:32.906Z,46.00
2019-05-20T04:56:03.578Z,47.80
2019-05-20T04:58:34.773Z,44.90
2019-05-20T05:01:05.970Z,46.90
2019-05-20T05:03:36.951Z,45.80
2019-05-20T05:06:07.867Z,45.60
2019-05-20T05:08:38.535Z,45.40
2019-05-20T05:11:09.473Z,44.60
2019-05-20T05:13:40.474Z,44.70
2019-05-20T05:16:11.251Z,45.30
2019-05-20T05:18:41.944Z,44.40
2019-05-20T05:21:14.504Z,44.60
2019-05-20T05:23:58.340Z,45.10
2019-05-20T05:26:18.500Z,44.60
2019-05-20T05:28:50.456Z,43.20
2019-05-20T05:32:01.338Z,43.70
2019-05-20T05:34:34.610Z,43.60
2019-05-20T05:37:07.354Z,42.20
2019-05-20T05:39:45.096Z,42.00
2019-05-20T05:42:27.394Z,39.80
2019-05-20T05:44:58.165Z,42.40
2019-05-20T05:47:28.875Z,42.70
2019-05-20T05:49:59.557Z,40.60
2019-05-20T05:52:32.070Z,41.60
2019-05-20T05:55:04.970Z,40.70
2019-05-20T05:57:35.655Z,41.30
2019-05-20T06:00:08.008Z,41.60
2019-05-20T06:02:38.741Z,42.20
2019-05-20T06:05:09.565Z,41.90
2019-05-20T06:07:40.326Z,41.00
2019-05-20T06:10:11.121Z,40.20
2019-05-20T06:12:41.853Z,40.40
2019-05-20T06:15:12.644Z,40.20
2019-05-20T06:17:43.313Z,40.80
2019-05-20T06:20:14.181Z,41.30
2019-05-20T06:22:45.066Z,41.70
2019-05-20T06:25:16.015Z,42.60
2019-05-20T06:27:47.193Z,41.30
2019-05-20T06:30:19.208Z,40.80
2019-05-20T06:32:50.197Z,40.80
2019-05-20T06:35:20.890Z,40.10
2019-05-20T06:37:53.020Z,40.90
2019-05-20T06:40:23.973Z,41.40
2019-05-20T06:42:54.695Z,41.30
2019-05-20T06:45:25.364Z,41.80
2019-05-20T06:47:56.037Z,41.80
2019-05-20T06:50:29.590Z,41.80
2019-05-20T06:52:58.801Z,42.40
2019-05-20T06:55:29.480Z,42.20
2019-05-20T06:58:00.439Z,41.20
2019-05-20T07:00:33.739Z,40.30
2019-05-20T07:03:04.749Z,40.70
2019-05-20T07:05:35.719Z,39.40
2019-05-20T07:08:06.721Z,40.30
2019-05-20T07:10:37.925Z,41.10
2019-05-20T07:13:08.864Z,40.00
2019-05-20T07:15:39.935Z,40.30
2019-05-20T07:18:10.777Z,39.60
2019-05-20T07:20:41.761Z,40.20
2019-05-20T07:23:12.641Z,39.70
2019-05-20T07:25:43.500Z,40.30
2019-05-20T07:28:14.381Z,40.00
2019-05-20T07:30:45.175Z,40.40
2019-05-20T07:33:16.064Z,41.20
2019-05-20T07:35:47.243Z,41.90
2019-05-20T07:38:18.208Z,41.00
2019-05-20T07:40:49.084Z,41.60
2019-05-20T07:43:19.853Z,41.80
2019-05-20T07:45:50.735Z,40.40
2019-05-20T07:48:23.619Z,40.50
2019-05-20T07:50:54.209Z,41.70
2019-05-20T07:53:27.861Z,40.50
2019-05-20T07:56:01.296Z,40.80
2019-05-20T07:58:33.826Z,40.80
2019-05-20T08:01:04.572Z,41.00
2019-05-20T08:03:38.534Z,41.50
2019-05-20T08:06:07.794Z,40.40
2019-05-20T08:08:38.418Z,40.30
2019-05-20T08:11:09.346Z,39.90
2019-05-20T08:13:40.234Z,41.50
2019-05-20T08:16:10.902Z,39.90
2019-05-20T08:18:41.689Z,39.20
2019-05-20T08:21:13.179Z,40.00
2019-05-20T08:23:44.062Z,39.50
2019-05-20T08:26:15.051Z,39.70
2019-05-20T08:28:46.040Z,39.20
2019-05-20T08:31:17.061Z,39.80
2019-05-20T08:33:48.020Z,39.80
2019-05-20T08:36:18.917Z,38.80
2019-05-20T08:38:50.773Z,39.00
2019-05-20T08:41:21.531Z,39.50
2019-05-20T08:43:53.159Z,39.70
2019-05-20T08:46:23.949Z,40.30
2019-05-20T08:48:58.960Z,38.60
2019-05-20T08:51:29.843Z,38.10
2019-05-20T08:54:00.852Z,37.60
2019-05-20T08:56:31.749Z,38.10
2019-05-20T08:59:05.138Z,38.40
2019-05-20T09:01:36.189Z,38.80
2019-05-20T09:04:07.026Z,38.10
2019-05-20T09:06:37.867Z,38.80
2019-05-20T09:09:12.211Z,37.70
2019-05-20T09:11:41.340Z,37.50
2019-05-20T09:14:12.320Z,37.10
2019-05-20T09:16:43.262Z,36.80
2019-05-20T09:19:13.992Z,36.90
2019-05-20T09:21:44.888Z,37.30
2019-05-20T09:24:18.827Z,38.10
2019-05-20T09:26:48.003Z,37.60
2019-05-20T09:29:18.996Z,38.10
2019-05-20T09:31:49.665Z,38.60
2019-05-20T09:34:20.618Z,37.90
2019-05-20T09:36:51.478Z,38.20
2019-05-20T09:39:22.463Z,38.20
2019-05-20T09:41:53.271Z,38.30
2019-05-20T09:44:23.972Z,38.70
2019-05-20T09:46:55.380Z,39.30
2019-05-20T09:49:26.350Z,38.60
2019-05-20T09:51:58.295Z,38.90
2019-05-20T09:54:30.777Z,39.30
2019-05-20T09:57:01.748Z,38.40
2019-05-20T09:59:42.602Z,38.90
2019-05-20T10:02:05.030Z,38.80
2019-05-20T10:04:35.784Z,37.80
2019-05-20T10:07:06.772Z,38.50
2019-05-20T10:09:37.470Z,38.50
2019-05-20T10:12:09.345Z,38.90
2019-05-20T10:14:40.101Z,38.80
2019-05-20T10:17:10.820Z,37.80
2019-05-20T10:19:42.368Z,38.30
2019-05-20T10:22:13.379Z,37.40
2019-05-20T10:24:44.372Z,37.40
2019-05-20T10:27:15.221Z,37.40
2019-05-20T10:29:45.928Z,36.90
2019-05-20T10:32:16.780Z,36.60
2019-05-20T10:34:47.441Z,37.20
2019-05-20T10:37:18.322Z,37.00
2019-05-20T10:39:48.946Z,38.00
2019-05-20T10:42:19.857Z,38.50
2019-05-20T10:44:50.532Z,38.40
2019-05-20T10:47:21.611Z,38.20
2019-05-20T10:49:52.654Z,38.30
2019-05-20T10:52:23.571Z,38.90
2019-05-20T10:54:54.520Z,38.80
2019-05-20T10:57:25.289Z,39.10
2019-05-20T10:59:56.175Z,39.40
2019-05-20T11:02:30.996Z,39.80
2019-05-20T11:04:59.294Z,39.80
2019-05-20T11:07:30.164Z,39.80
2019-05-20T11:10:01.111Z,40.40
2019-05-20T11:12:31.999Z,40.60
2019-05-20T11:15:03.174Z,41.30
2019-05-20T11:17:34.171Z,41.30
2019-05-20T11:20:06.805Z,41.80
2019-05-20T11:22:37.581Z,41.90
2019-05-20T11:25:08.943Z,42.70
2019-05-20T11:27:39.821Z,42.20
2019-05-20T11:30:11.466Z,43.30
2019-05-20T11:32:42.394Z,42.60
2019-05-20T11:35:13.082Z,43.30
2019-05-20T11:37:44.094Z,43.30
2019-05-20T11:40:16.064Z,43.20
2019-05-20T11:42:46.991Z,43.40
2019-05-20T11:45:17.893Z,44.10
2019-05-20T11:47:48.827Z,43.60
2019-05-20T11:50:19.808Z,44.00
2019-05-20T11:52:50.816Z,44.50
2019-05-20T11:55:21.611Z,44.70
2019-05-20T11:57:52.521Z,44.70
2019-05-20T12:00:23.478Z,44.90
2019-05-20T12:02:54.400Z,45.50
2019-05-20T12:05:25.045Z,45.50
2019-05-20T12:07:56.209Z,45.60
2019-05-20T12:10:27.316Z,44.70
2019-05-20T12:12:58.211Z,45.30
2019-05-20T12:15:29.088Z,46.00
2019-05-20T12:17:59.876Z,45.90
2019-05-20T12:20:30.511Z,46.10
2019-05-20T12:23:01.176Z,46.10
2019-05-20T12:25:32.169Z,46.20
2019-05-20T12:28:02.938Z,45.70
2019-05-20T12:30:33.621Z,46.40
2019-05-20T12:33:17.835Z,45.70
2019-05-20T12:35:36.739Z,46.40
2019-05-20T12:38:07.544Z,45.70
2019-05-20T12:40:38.547Z,46.20
2019-05-20T12:43:09.507Z,46.80
2019-05-20T12:45:40.601Z,45.90
2019-05-20T12:48:11.406Z,46.40
2019-05-20T12:50:42.107Z,46.40
2019-05-20T12:53:12.971Z,46.90
2019-05-20T12:55:44.163Z,46.40
2019-05-20T12:58:15.017Z,47.40
2019-05-20T13:00:45.902Z,46.40
2019-05-20T13:03:16.859Z,46.90
2019-05-20T13:05:47.901Z,46.50
2019-05-20T13:08:18.679Z,47.20
2019-05-20T13:10:49.550Z,46.90
2019-05-20T13:13:20.308Z,46.70
2019-05-20T13:15:51.704Z,46.80
2019-05-20T13:18:23.349Z,47.40
2019-05-20T13:20:54.340Z,47.90
2019-05-20T13:23:25.325Z,47.80
2019-05-20T13:25:56.174Z,47.80
2019-05-20T13:28:26.946Z,47.70
2019-05-20T13:30:58.073Z,47.80
2019-05-20T13:33:29.149Z,48.50
2019-05-20T13:36:00.051Z,48.00
2019-05-20T13:38:31.198Z,48.30
2019-05-20T13:41:02.015Z,48.90
2019-05-20T13:43:32.781Z,49.10
2019-05-20T13:46:03.508Z,49.40
2019-05-20T13:48:34.431Z,48.60
2019-05-20T13:53:35.266Z,49.40
2019-05-20T13:56:06.046Z,49.40
2019-05-20T13:58:36.938Z,49.60
2019-05-20T14:03:37.920Z,49.80
2019-05-20T14:06:08.933Z,50.40
2019-05-20T14:08:39.815Z,50.10
2019-05-20T14:11:10.829Z,50.10
2019-05-20T14:13:41.576Z,50.30
2019-05-20T14:16:12.249Z,50.20
2019-05-20T14:18:42.952Z,50.30
2019-05-20T14:21:13.842Z,50.30
2019-05-20T14:23:44.721Z,50.80
2019-05-20T14:26:16.793Z,51.20
2019-05-20T14:28:47.785Z,51.00
2019-05-20T14:31:18.664Z,51.10
2019-05-20T14:33:49.668Z,51.70
2019-05-20T14:36:38.481Z,51.20
2019-05-20T14:38:53.029Z,52.10
2019-05-20T14:41:23.710Z,51.60
2019-05-20T14:43:54.593Z,52.20
2019-05-20T14:46:25.556Z,53.00
2019-05-20T14:48:56.442Z,52.80
2019-05-20T14:51:27.341Z,52.50
2019-05-20T14:53:58.382Z,53.10
2019-05-20T14:56:29.287Z,53.60
2019-05-20T14:59:00.251Z,53.40
2019-05-20T15:01:30.963Z,54.00
2019-05-20T15:04:01.976Z,53.60
2019-05-20T15:06:32.981Z,54.20
2019-05-20T15:09:03.945Z,54.60
2019-05-20T15:11:38.207Z,54.40
2019-05-20T15:14:07.706Z,54.30
2019-05-20T15:16:39.677Z,53.50
2019-05-20T15:19:10.745Z,54.40
2019-05-20T15:21:41.524Z,54.40
2019-05-20T15:24:12.198Z,53.40
2019-05-20T15:26:43.319Z,54.40
2019-05-20T15:29:27.648Z,55.00
2019-05-20T15:31:53.699Z,55.20
2019-05-20T15:34:29.067Z,54.90
2019-05-20T15:37:00.481Z,54.60
2019-05-20T15:39:31.569Z,55.40
2019-05-20T15:42:02.589Z,55.80
2019-05-20T15:44:34.936Z,56.10
2019-05-20T15:47:06.091Z,55.90
2019-05-20T15:49:37.082Z,54.60
2019-05-20T15:52:08.036Z,55.40
2019-05-20T15:54:38.990Z,55.10
2019-05-20T15:57:10.130Z,55.50
2019-05-20T15:59:46.099Z,56.30
2019-05-20T16:02:13.382Z,55.50
2019-05-20T16:04:44.059Z,56.20
2019-05-20T16:07:15.012Z,55.60
2019-05-20T16:09:45.685Z,54.90
2019-05-20T16:12:16.492Z,55.60
2019-05-20T16:14:47.168Z,55.80
2019-05-20T16:17:17.855Z,55.90
2019-05-20T16:19:48.787Z,56.40
2019-05-20T16:22:19.786Z,55.90
2019-05-20T16:24:50.831Z,56.60
2019-05-20T16:27:21.755Z,56.20
2019-05-20T16:30:05.553Z,56.60
2019-05-20T16:32:24.708Z,56.10
2019-05-20T16:34:55.634Z,56.40
2019-05-20T16:37:26.418Z,56.10
2019-05-20T16:39:57.319Z,56.40
2019-05-20T16:42:28.116Z,56.10
2019-05-20T16:44:58.838Z,56.40
2019-05-20T16:47:29.624Z,56.40
2019-05-20T16:50:00.599Z,56.40
2019-05-20T16:52:31.325Z,56.50
2019-05-20T16:55:02.295Z,56.40
2019-05-20T16:57:33.339Z,56.80
2019-05-20T17:00:07.813Z,57.00
2019-05-20T17:02:36.625Z,57.00
2019-05-20T17:05:08.388Z,57.00
2019-05-20T17:07:39.390Z,57.30
2019-05-20T17:10:10.249Z,57.30
2019-05-20T17:12:41.254Z,57.50
2019-05-20T17:15:13.427Z,57.90
2019-05-20T17:17:44.285Z,58.00
2019-05-20T17:20:15.262Z,58.00
2019-05-20T17:22:46.159Z,57.90
2019-05-20T17:25:17.712Z,58.50
2019-05-20T17:27:48.712Z,58.00
2019-05-20T17:30:19.898Z,57.90
2019-05-20T17:32:50.819Z,58.20
2019-05-20T17:35:21.768Z,58.60
2019-05-20T17:37:55.151Z,58.30
2019-05-20T17:40:25.175Z,58.70
2019-05-20T17:42:56.037Z,58.60
2019-05-20T17:45:26.796Z,59.00
2019-05-20T17:47:57.662Z,58.60
2019-05-20T17:50:28.481Z,59.20
2019-05-20T17:52:59.215Z,59.10
2019-05-20T17:55:30.459Z,59.00
2019-05-20T17:58:01.438Z,58.70
2019-05-20T18:00:32.305Z,58.90
2019-05-20T18:03:03.197Z,58.70
2019-05-20T18:05:34.067Z,58.70
2019-05-20T18:08:04.943Z,58.50
2019-05-20T18:10:35.709Z,58.80
2019-05-20T18:13:06.702Z,58.70
2019-05-20T18:15:37.585Z,58.90
2019-05-20T18:18:08.367Z,58.70
2019-05-20T18:20:39.227Z,59.40
2019-05-20T18:23:10.368Z,58.80
2019-05-20T18:25:41.030Z,59.10
2019-05-20T18:28:11.827Z,58.60
2019-05-20T18:30:42.771Z,59.40
2019-05-20T18:33:13.759Z,60.10
2019-05-20T18:35:44.421Z,60.30
2019-05-20T18:38:15.327Z,60.60
2019-05-20T18:40:46.065Z,60.90
2019-05-20T18:43:17.072Z,60.40
2019-05-20T18:45:47.947Z,60.80
2019-05-20T18:48:18.861Z,60.50
2019-05-20T18:50:49.633Z,61.40
2019-05-20T18:53:20.312Z,61.00
2019-05-20T18:55:51.173Z,61.70
2019-05-20T18:58:22.155Z,61.70
2019-05-20T19:00:53.028Z,61.80
2019-05-20T19:03:24.375Z,62.00
2019-05-20T19:05:55.729Z,61.90
2019-05-20T19:08:26.595Z,61.90
2019-05-20T19:10:57.563Z,62.10
2019-05-20T19:13:28.528Z,62.50
2019-05-20T19:15:59.496Z,62.10
2019-05-20T19:18:30.294Z,62.50
2019-05-20T19:21:01.158Z,62.50
2019-05-20T19:23:31.966Z,62.50
2019-05-20T19:26:02.825Z,62.20
2019-05-20T19:28:33.522Z,62.30
2019-05-20T19:31:07.732Z,62.30
2019-05-20T19:33:36.489Z,62.50
2019-05-20T19:36:07.291Z,62.50
2019-05-20T19:38:38.332Z,62.30
2019-05-20T19:41:09.385Z,62.50
2019-05-20T19:43:40.097Z,62.70
2019-05-20T19:46:10.998Z,63.30
2019-05-20T19:48:42.077Z,63.30
2019-05-20T19:51:12.860Z,63.40
2019-05-20T19:53:43.674Z,63.80
2019-05-20T19:56:14.324Z,64.30
2019-05-20T19:58:45.102Z,64.30
2019-05-20T20:01:15.960Z,64.70
2019-05-20T20:03:46.891Z,65.10
2019-05-20T20:06:17.899Z,65.40
2019-05-20T20:08:48.816Z,65.30
2019-05-20T20:11:19.796Z,65.50
2019-05-20T20:13:50.693Z,65.70
2019-05-20T20:16:59.024Z,66.00
2019-05-20T20:19:30.409Z,66.10
2019-05-20T20:22:01.289Z,66.00
2019-05-20T20:24:32.165Z,66.60
2019-05-20T20:27:03.067Z,66.60
2019-05-20T20:29:33.946Z,67.00
2019-05-20T20:32:04.746Z,67.10
2019-05-20T20:34:35.585Z,67.20
2019-05-20T20:37:06.603Z,67.60
2019-05-20T20:39:37.460Z,68.10
2019-05-20T20:42:08.472Z,67.80
2019-05-20T20:44:39.435Z,68.20
2019-05-20T20:47:10.182Z,68.40
2019-05-20T20:49:41.164Z,68.40
2019-05-20T20:52:12.025Z,68.90
2019-05-20T20:54:42.799Z,68.50
2019-05-20T20:57:13.804Z,68.70
2019-05-20T20:59:44.486Z,68.90
2019-05-20T21:02:15.266Z,68.00
2019-05-20T21:04:46.045Z,67.50
2019-05-20T21:07:17.050Z,68.80
2019-05-20T21:09:47.816Z,68.40
2019-05-20T21:12:18.812Z,67.90
2019-05-20T21:14:49.590Z,67.70
2019-05-20T21:17:20.477Z,67.40
2019-05-20T21:19:51.252Z,66.60
2019-05-20T21:22:22.240Z,66.60
2019-05-20T21:24:53.005Z,66.60
2019-05-20T21:27:23.783Z,66.00
2019-05-20T21:29:54.549Z,65.40
2019-05-20T21:32:26.306Z,66.20
2019-05-20T21:34:57.312Z,66.80
2019-05-20T21:37:28.212Z,66.40
2019-05-20T21:39:58.897Z,67.50
2019-05-20T21:42:29.801Z,67.90
2019-05-20T21:45:00.679Z,68.50
2019-05-20T21:47:31.491Z,68.40
2019-05-20T21:50:02.176Z,67.60
2019-05-20T21:52:33.047Z,68.60
2019-05-20T21:55:03.738Z,68.30
2019-05-20T21:57:34.431Z,68.80
2019-05-20T22:00:06.718Z,68.40
2019-05-20T22:02:37.464Z,68.80
2019-05-20T22:05:08.597Z,69.00
2019-05-20T22:07:39.500Z,69.30
2019-05-20T22:10:10.405Z,68.80
2019-05-20T22:12:41.310Z,68.40
2019-05-20T22:15:12.354Z,68.80
2019-05-20T22:17:43.243Z,68.80
2019-05-20T22:20:14.200Z,68.70
2019-05-20T22:22:46.370Z,66.50
2019-05-20T22:25:17.247Z,68.30
2019-05-20T22:27:48.212Z,68.70
2019-05-20T22:30:18.995Z,69.40
2019-05-20T22:32:49.768Z,69.80
2019-05-20T22:35:20.621Z,70.00
2019-05-20T22:37:51.458Z,69.80
2019-05-20T22:40:22.112Z,69.50
2019-05-20T22:42:52.774Z,68.70
2019-05-20T22:45:23.474Z,69.90
2019-05-20T22:47:54.141Z,69.60
2019-05-20T22:50:25.030Z,67.00
2019-05-20T22:52:55.893Z,68.70
2019-05-20T22:55:26.858Z,69.00
2019-05-20T22:57:57.766Z,68.70
2019-05-20T23:00:28.733Z,68.70
2019-05-20T23:02:59.648Z,68.40
2019-05-20T23:05:30.619Z,68.50
2019-05-20T23:08:01.500Z,68.80
2019-05-20T23:10:32.593Z,69.10
2019-05-20T23:13:03.502Z,68.90
2019-05-20T23:15:34.618Z,69.50
2019-05-20T23:18:05.433Z,69.60
2019-05-20T23:20:36.211Z,69.50
2019-05-20T23:23:06.975Z,68.70
2019-05-20T23:25:37.819Z,69.90
2019-05-20T23:28:08.533Z,69.40
2019-05-20T23:30:39.414Z,69.80
2019-05-20T23:33:10.219Z,70.20
2019-05-20T23:35:41.035Z,70.20
2019-05-20T23:38:11.990Z,68.30
2019-05-20T23:40:42.867Z,69.70
2019-05-20T23:43:13.673Z,70.00
2019-05-20T23:45:45.033Z,70.00
2019-05-20T23:48:16.064Z,69.80
2019-05-20T23:50:46.760Z,69.70
2019-05-20T23:53:17.543Z,69.60
2019-05-20T23:55:48.401Z,69.10
2019-05-20T23:58:19.213Z,68.80
